createdAt,value
2022-12-04T00:00:15.485Z,30.00
2022-12-04T00:01:15.419Z,28.30
2022-12-04T00:02:15.471Z,29.30
2022-12-04T00:03:15.476Z,28.40
2022-12-04T00:04:15.455Z,28.30
2022-12-04T00:05:15.537Z,27.50
2022-12-04T00:06:15.406Z,28.80
2022-12-04T00:07:15.338Z,27.10
2022-12-04T00:08:15.571Z,27.50
2022-12-04T00:09:15.776Z,26.40
2022-12-04T00:10:15.403Z,26.70
2022-12-04T00:11:15.341Z,27.20
2022-12-04T00:12:15.325Z,26.90
2022-12-04T00:13:15.409Z,25.50
2022-12-04T00:14:15.331Z,25.90
2022-12-04T00:15:25.194Z,24.90
2022-12-04T00:16:15.432Z,24.70
2022-12-04T00:17:15.407Z,26.00
2022-12-04T00:18:15.247Z,24.60
2022-12-04T00:19:15.245Z,24.20
2022-12-04T00:20:15.228Z,25.00
2022-12-04T00:21:15.238Z,25.20
2022-12-04T00:22:15.230Z,23.80
2022-12-04T00:23:15.166Z,23.90
2022-12-04T00:24:15.274Z,24.10
2022-12-04T00:25:15.221Z,23.00
2022-12-04T00:26:15.381Z,22.50
2022-12-04T00:27:15.181Z,22.40
2022-12-04T00:28:15.268Z,23.10
2022-12-04T00:29:15.146Z,23.30
2022-12-04T00:30:15.126Z,22.60
2022-12-04T00:31:15.240Z,22.30
2022-12-04T00:32:15.108Z,22.10
2022-12-04T00:33:15.106Z,20.90
2022-12-04T00:34:15.191Z,21.30
2022-12-04T00:35:15.044Z,21.80
2022-12-04T00:36:15.087Z,20.00
2022-12-04T00:37:15.037Z,21.50
2022-12-04T00:38:15.042Z,20.00
2022-12-04T00:39:15.047Z,22.40
2022-12-04T00:40:15.076Z,20.00
2022-12-04T00:41:14.990Z,20.30
2022-12-04T00:42:15.012Z,19.00
2022-12-04T00:43:14.985Z,20.50
2022-12-04T00:44:14.976Z,20.10
2022-12-04T00:45:14.983Z,19.50
2022-12-04T00:46:15.070Z,19.30
2022-12-04T00:47:14.916Z,19.00
2022-12-04T00:48:14.974Z,18.30
2022-12-04T00:49:14.906Z,19.10
2022-12-04T00:50:15.244Z,17.90
2022-12-04T00:51:14.991Z,17.60
2022-12-04T00:52:14.889Z,18.10
2022-12-04T00:53:14.881Z,17.80
2022-12-04T00:54:15.113Z,18.40
2022-12-04T00:55:14.943Z,17.60
2022-12-04T00:56:14.852Z,18.00
2022-12-04T00:57:14.842Z,18.90
2022-12-04T00:58:14.932Z,19.50
2022-12-04T00:59:14.792Z,17.60
2022-12-04T01:00:14.863Z,17.10
2022-12-04T01:01:14.856Z,17.00
2022-12-04T01:02:14.792Z,17.50
2022-12-04T01:03:14.956Z,17.00
2022-12-04T01:04:14.830Z,16.50
2022-12-04T01:05:14.865Z,17.10
2022-12-04T01:06:14.797Z,17.70
2022-12-04T01:07:14.703Z,16.90
2022-12-04T01:08:14.816Z,16.00
2022-12-04T01:09:14.686Z,16.30
2022-12-04T01:10:14.754Z,16.40
2022-12-04T01:11:14.692Z,15.60
2022-12-04T01:12:20.405Z,15.60
2022-12-04T01:13:14.689Z,15.40
2022-12-04T01:14:14.787Z,15.80
2022-12-04T01:15:14.628Z,15.70
2022-12-04T01:16:14.702Z,16.20
2022-12-04T01:17:14.861Z,15.40
2022-12-04T01:18:14.858Z,15.00
2022-12-04T01:19:15.045Z,14.70
2022-12-04T01:20:14.618Z,14.10
2022-12-04T01:21:14.586Z,14.60
2022-12-04T01:22:14.698Z,14.30
2022-12-04T01:23:14.635Z,14.80
2022-12-04T01:24:14.769Z,14.50
2022-12-04T01:25:14.515Z,14.40
2022-12-04T01:26:14.533Z,14.60
2022-12-04T01:27:14.549Z,13.80
2022-12-04T01:28:14.635Z,13.20
2022-12-04T01:29:14.490Z,13.60
2022-12-04T01:30:14.508Z,13.10
2022-12-04T01:31:14.619Z,13.40
2022-12-04T01:32:14.517Z,12.70
2022-12-04T01:33:14.472Z,13.50
2022-12-04T01:34:14.478Z,13.20
2022-12-04T01:35:14.452Z,13.80
2022-12-04T01:36:15.083Z,13.20
2022-12-04T01:37:14.499Z,12.80
2022-12-04T01:38:14.406Z,12.30
2022-12-04T01:39:14.693Z,13.30
2022-12-04T01:40:14.411Z,12.20
2022-12-04T01:41:14.377Z,13.30
2022-12-04T01:42:14.406Z,12.70
2022-12-04T01:43:14.327Z,11.70
2022-12-04T01:44:14.607Z,12.10
2022-12-04T01:45:14.335Z,11.30
2022-12-04T01:46:14.473Z,12.90
2022-12-04T01:47:14.407Z,12.00
2022-12-04T01:48:14.474Z,11.30
2022-12-04T01:49:14.368Z,12.40
2022-12-04T01:50:14.388Z,11.30
2022-12-04T01:51:14.271Z,11.70
2022-12-04T01:52:14.355Z,11.20
2022-12-04T01:53:14.254Z,11.30
2022-12-04T01:54:14.273Z,10.90
2022-12-04T01:55:14.209Z,11.30
2022-12-04T01:56:14.242Z,11.70
2022-12-04T01:57:14.233Z,10.90
2022-12-04T01:58:14.192Z,11.60
2022-12-04T01:59:14.189Z,10.20
2022-12-04T02:00:14.250Z,11.10
2022-12-04T02:01:14.288Z,10.80
2022-12-04T02:02:14.392Z,9.90
2022-12-04T02:03:14.232Z,10.50
2022-12-04T02:04:14.219Z,10.20
2022-12-04T02:05:14.138Z,10.60
2022-12-04T02:06:14.139Z,10.70
2022-12-04T02:07:14.125Z,10.30
2022-12-04T02:08:14.225Z,11.00
2022-12-04T02:09:14.142Z,9.80
2022-12-04T02:10:14.069Z,9.90
2022-12-04T02:11:14.060Z,10.40
2022-12-04T02:12:14.082Z,9.60
2022-12-04T02:13:14.082Z,9.70
2022-12-04T02:14:14.089Z,10.30
2022-12-04T02:15:13.985Z,9.40
2022-12-04T02:16:14.163Z,9.80
2022-12-04T02:17:14.014Z,10.30
2022-12-04T02:18:14.006Z,10.50
2022-12-04T02:19:14.007Z,9.50
2022-12-04T02:20:13.976Z,9.40
2022-12-04T02:21:13.981Z,9.60
2022-12-04T02:22:13.988Z,9.00
2022-12-04T02:23:13.985Z,10.00
2022-12-04T02:24:13.948Z,8.70
2022-12-04T02:25:14.572Z,9.30
2022-12-04T02:26:13.909Z,8.90
2022-12-04T02:27:13.904Z,9.30
2022-12-04T02:28:13.997Z,8.90
2022-12-04T02:29:13.891Z,9.20
2022-12-04T02:30:13.902Z,9.30
2022-12-04T02:31:13.924Z,9.00
2022-12-04T02:32:13.887Z,8.30
2022-12-04T02:33:13.902Z,8.40
2022-12-04T02:34:13.867Z,8.40
2022-12-04T02:35:13.776Z,8.60
2022-12-04T02:36:13.849Z,8.40
2022-12-04T02:37:13.760Z,8.40
2022-12-04T02:38:13.817Z,8.20
2022-12-04T02:39:13.809Z,8.50
2022-12-04T02:40:13.788Z,8.70
2022-12-04T02:41:13.745Z,8.70
2022-12-04T02:42:13.757Z,8.40
2022-12-04T02:43:13.708Z,8.50
2022-12-04T02:44:13.854Z,8.60
2022-12-04T02:45:13.682Z,7.60
2022-12-04T02:46:13.860Z,7.90
2022-12-04T02:47:13.695Z,7.20
2022-12-04T02:48:13.698Z,7.90
2022-12-04T02:49:13.639Z,8.00
2022-12-04T02:50:13.961Z,7.90
2022-12-04T02:51:13.641Z,8.10
2022-12-04T02:52:13.697Z,7.90
2022-12-04T02:53:13.631Z,7.50
2022-12-04T02:54:13.633Z,8.00
2022-12-04T02:55:13.583Z,8.00
2022-12-04T02:56:13.622Z,8.00
2022-12-04T02:57:13.556Z,7.10
2022-12-04T02:58:13.583Z,7.90
2022-12-04T02:59:13.560Z,7.50
2022-12-04T03:00:13.574Z,7.70
2022-12-04T03:01:13.587Z,7.70
2022-12-04T03:02:13.608Z,7.40
2022-12-04T03:03:13.485Z,7.50
2022-12-04T03:04:13.567Z,7.40
2022-12-04T03:05:13.492Z,7.10
2022-12-04T03:06:14.252Z,7.70
2022-12-04T03:07:13.472Z,7.80
2022-12-04T03:08:13.637Z,7.40
2022-12-04T03:09:13.421Z,6.40
2022-12-04T03:10:13.453Z,7.80
2022-12-04T03:11:13.430Z,6.90
2022-12-04T03:12:13.418Z,7.20
2022-12-04T03:13:13.418Z,6.80
2022-12-04T03:14:13.443Z,6.40
2022-12-04T03:15:13.360Z,7.50
2022-12-04T03:16:13.576Z,6.50
2022-12-04T03:17:19.546Z,7.00
2022-12-04T03:18:13.338Z,6.70
2022-12-04T03:19:13.368Z,7.50
2022-12-04T03:20:13.333Z,7.00
2022-12-04T03:21:13.321Z,7.10
2022-12-04T03:22:13.311Z,7.00
2022-12-04T03:23:13.361Z,6.70
2022-12-04T03:24:13.295Z,7.00
2022-12-04T03:25:13.319Z,6.90
2022-12-04T03:26:13.248Z,6.70
2022-12-04T03:27:13.419Z,6.60
2022-12-04T03:28:13.249Z,6.80
2022-12-04T03:29:13.253Z,6.40
2022-12-04T03:30:13.229Z,6.80
2022-12-04T03:31:13.325Z,6.40
2022-12-04T03:32:13.192Z,6.40
2022-12-04T03:33:13.227Z,6.40
2022-12-04T03:34:13.243Z,6.20
2022-12-04T03:35:13.210Z,6.80
2022-12-04T03:36:13.194Z,6.40
2022-12-04T03:37:13.174Z,6.90
2022-12-04T03:38:13.110Z,6.40
2022-12-04T03:39:13.197Z,6.80
2022-12-04T03:40:13.257Z,6.20
2022-12-04T03:41:13.119Z,6.20
2022-12-04T03:42:13.104Z,6.40
2022-12-04T03:43:13.109Z,6.40
2022-12-04T03:44:13.049Z,6.50
2022-12-04T03:45:13.100Z,6.10
2022-12-04T03:46:13.112Z,6.30
2022-12-04T03:47:13.210Z,6.00
2022-12-04T03:48:15.797Z,5.90
2022-12-04T03:49:13.035Z,5.70
2022-12-04T03:50:12.980Z,6.10
2022-12-04T03:51:13.023Z,6.70
2022-12-04T03:52:13.060Z,6.20
2022-12-04T03:53:13.002Z,5.90
2022-12-04T03:54:12.968Z,5.70
2022-12-04T03:55:12.954Z,5.60
2022-12-04T03:56:12.920Z,5.90
2022-12-04T03:57:12.965Z,5.90
2022-12-04T03:58:12.911Z,5.60
2022-12-04T03:59:12.949Z,5.30
2022-12-04T04:00:12.905Z,6.00
2022-12-04T04:01:13.038Z,5.90
2022-12-04T04:02:12.925Z,5.80
2022-12-04T04:03:12.879Z,6.00
2022-12-04T04:04:12.839Z,5.50
2022-12-04T04:05:12.915Z,5.90
2022-12-04T04:06:12.843Z,5.30
2022-12-04T04:07:12.827Z,5.50
2022-12-04T04:08:12.885Z,6.10
2022-12-04T04:09:12.938Z,5.70
2022-12-04T04:10:12.963Z,5.80
2022-12-04T04:11:12.818Z,6.00
2022-12-04T04:12:12.779Z,5.50
2022-12-04T04:13:12.780Z,5.40
2022-12-04T04:14:12.763Z,5.80
2022-12-04T04:15:12.778Z,5.80
2022-12-04T04:16:12.760Z,5.30
2022-12-04T04:17:12.761Z,5.50
2022-12-04T04:18:12.717Z,5.50
2022-12-04T04:19:12.766Z,5.40
2022-12-04T04:20:12.690Z,5.30
2022-12-04T04:21:12.799Z,5.70
2022-12-04T04:22:12.797Z,5.10
2022-12-04T04:23:12.766Z,5.40
2022-12-04T04:24:12.663Z,5.70
2022-12-04T04:25:12.676Z,5.10
2022-12-04T04:26:12.599Z,5.40
2022-12-04T04:27:12.653Z,5.10
2022-12-04T04:28:12.620Z,5.30
2022-12-04T04:29:12.666Z,5.40
2022-12-04T04:30:12.680Z,5.40
2022-12-04T04:31:12.699Z,5.20
2022-12-04T04:32:12.541Z,5.50
2022-12-04T04:33:12.582Z,5.10
2022-12-04T04:34:12.524Z,5.40
2022-12-04T04:35:12.661Z,5.40
2022-12-04T04:36:12.526Z,4.80
2022-12-04T04:37:12.644Z,5.10
2022-12-04T04:38:12.480Z,5.20
2022-12-04T04:39:12.560Z,5.00
2022-12-04T04:40:12.495Z,5.20
2022-12-04T04:41:12.487Z,5.40
2022-12-04T04:42:12.472Z,5.20
2022-12-04T04:43:12.461Z,5.30
2022-12-04T04:44:12.412Z,5.20
2022-12-04T04:45:12.468Z,4.90
2022-12-04T04:46:12.495Z,4.90
2022-12-04T04:47:12.438Z,4.90
2022-12-04T04:48:12.413Z,4.80
2022-12-04T04:49:12.405Z,5.30
2022-12-04T04:50:12.379Z,4.60
2022-12-04T04:51:12.372Z,4.90
2022-12-04T04:52:12.369Z,4.60
2022-12-04T04:53:12.378Z,5.10
2022-12-04T04:54:12.816Z,5.30
2022-12-04T04:55:12.323Z,4.80
2022-12-04T04:56:12.292Z,4.70
2022-12-04T04:57:12.332Z,5.20
2022-12-04T04:58:12.276Z,4.90
2022-12-04T04:59:12.312Z,5.10
2022-12-04T05:00:12.303Z,5.00
2022-12-04T05:01:12.437Z,5.20
2022-12-04T05:02:12.327Z,4.60
2022-12-04T05:03:12.283Z,4.70
2022-12-04T05:04:12.209Z,4.90
2022-12-04T05:05:12.256Z,5.00
2022-12-04T05:06:12.182Z,4.60
2022-12-04T05:07:12.241Z,4.70
2022-12-04T05:08:12.280Z,5.00
2022-12-04T05:09:12.189Z,5.00
2022-12-04T05:10:12.143Z,4.50
2022-12-04T05:11:12.194Z,5.00
2022-12-04T05:12:12.173Z,5.00
2022-12-04T05:13:12.132Z,4.90
2022-12-04T05:14:12.193Z,4.60
2022-12-04T05:15:12.107Z,4.80
2022-12-04T05:16:12.123Z,4.10
2022-12-04T05:17:12.924Z,4.60
2022-12-04T05:18:12.052Z,4.60
2022-12-04T05:19:12.153Z,4.70
2022-12-04T05:20:12.268Z,4.80
2022-12-04T05:21:12.047Z,4.40
2022-12-04T05:22:12.034Z,4.40
2022-12-04T05:23:12.043Z,4.90
2022-12-04T05:24:11.988Z,4.60
2022-12-04T05:25:12.052Z,4.80
2022-12-04T05:26:11.969Z,4.80
2022-12-04T05:27:12.008Z,4.70
2022-12-04T05:28:11.978Z,4.70
2022-12-04T05:29:11.960Z,4.40
2022-12-04T05:30:12.042Z,4.60
2022-12-04T05:31:12.026Z,4.80
2022-12-04T05:32:11.906Z,4.70
2022-12-04T05:33:11.950Z,4.70
2022-12-04T05:34:11.896Z,4.40
2022-12-04T05:35:11.961Z,4.70
2022-12-04T05:36:11.880Z,4.40
2022-12-04T05:37:11.887Z,4.70
2022-12-04T05:38:11.859Z,5.00
2022-12-04T05:39:11.857Z,4.60
2022-12-04T05:40:11.836Z,4.80
2022-12-04T05:41:11.873Z,4.50
2022-12-04T05:42:11.820Z,4.00
2022-12-04T05:43:11.808Z,4.20
2022-12-04T05:44:11.769Z,4.50
2022-12-04T05:45:11.833Z,4.30
2022-12-04T05:46:11.809Z,4.40
2022-12-04T05:47:11.916Z,4.40
2022-12-04T05:48:11.748Z,4.40
2022-12-04T05:49:11.743Z,4.40
2022-12-04T05:50:11.739Z,4.50
2022-12-04T05:51:11.772Z,4.40
2022-12-04T05:52:11.733Z,4.10
2022-12-04T05:53:11.731Z,4.30
2022-12-04T05:54:11.665Z,4.10
2022-12-04T05:55:11.747Z,4.30
2022-12-04T05:56:11.666Z,4.40
2022-12-04T05:57:11.695Z,4.10
2022-12-04T05:58:11.752Z,4.20
2022-12-04T05:59:11.633Z,4.50
2022-12-04T06:00:11.646Z,4.80
2022-12-04T06:01:11.618Z,4.20
2022-12-04T06:02:11.660Z,4.00
2022-12-04T06:03:11.752Z,4.50
2022-12-04T06:04:11.568Z,4.10
2022-12-04T06:05:11.595Z,4.30
2022-12-04T06:06:16.079Z,4.00
2022-12-04T06:07:11.636Z,4.10
2022-12-04T06:08:11.655Z,4.30
2022-12-04T06:09:11.562Z,4.60
2022-12-04T06:10:11.675Z,3.90
2022-12-04T06:11:11.507Z,4.60
2022-12-04T06:12:11.475Z,3.90
2022-12-04T06:13:11.525Z,4.00
2022-12-04T06:14:11.490Z,4.10
2022-12-04T06:15:11.471Z,4.40
2022-12-04T06:16:11.502Z,4.10
2022-12-04T06:17:11.480Z,4.00
2022-12-04T06:18:11.431Z,4.30
2022-12-04T06:19:11.482Z,4.20
2022-12-04T06:20:12.136Z,4.10
2022-12-04T06:21:11.399Z,4.20
2022-12-04T06:22:11.381Z,4.10
2022-12-04T06:23:11.386Z,4.10
2022-12-04T06:24:11.398Z,4.00
2022-12-04T06:25:11.574Z,4.50
2022-12-04T06:26:11.314Z,4.00
2022-12-04T06:27:27.417Z,3.80
2022-12-04T06:28:11.345Z,4.20
2022-12-04T06:29:11.348Z,3.80
2022-12-04T06:30:11.435Z,4.00
2022-12-04T06:31:11.337Z,3.80
2022-12-04T06:32:14.073Z,3.80
2022-12-04T06:33:11.307Z,3.90
2022-12-04T06:34:11.225Z,3.70
2022-12-04T06:35:11.278Z,4.10
2022-12-04T06:36:11.229Z,4.00
2022-12-04T06:37:11.451Z,4.20
2022-12-04T06:38:11.321Z,4.00
2022-12-04T06:39:16.922Z,4.30
2022-12-04T06:40:11.184Z,3.90
2022-12-04T06:41:11.209Z,4.20
2022-12-04T06:42:11.141Z,4.00
2022-12-04T06:43:11.197Z,4.10
2022-12-04T06:44:11.156Z,3.80
2022-12-04T06:45:11.149Z,3.90
2022-12-04T06:46:11.142Z,4.00
2022-12-04T06:47:11.154Z,4.40
2022-12-04T06:48:11.100Z,3.80
2022-12-04T06:49:11.090Z,4.10
2022-12-04T06:50:11.161Z,4.00
2022-12-04T06:51:11.067Z,4.10
2022-12-04T06:52:11.037Z,3.80
2022-12-04T06:53:11.080Z,4.00
2022-12-04T06:54:11.136Z,3.60
2022-12-04T06:55:11.053Z,3.90
2022-12-04T06:56:11.112Z,3.90
2022-12-04T06:57:11.023Z,3.70
2022-12-04T06:58:11.011Z,3.80
2022-12-04T06:59:11.015Z,3.90
2022-12-04T07:00:10.953Z,3.70
2022-12-04T07:01:11.041Z,4.00
2022-12-04T07:02:11.018Z,3.70
2022-12-04T07:03:10.939Z,3.60
2022-12-04T07:04:10.900Z,3.70
2022-12-04T07:05:10.975Z,3.80
2022-12-04T07:06:10.960Z,4.00
2022-12-04T07:07:11.046Z,3.70
2022-12-04T07:08:10.997Z,4.30
2022-12-04T07:09:10.874Z,3.60
2022-12-04T07:10:10.886Z,3.80
2022-12-04T07:11:10.858Z,3.90
2022-12-04T07:12:10.814Z,3.70
2022-12-04T07:13:10.864Z,3.80
2022-12-04T07:14:10.817Z,3.90
2022-12-04T07:15:10.873Z,3.90
2022-12-04T07:16:10.883Z,3.60
2022-12-04T07:17:10.827Z,3.90
2022-12-04T07:18:10.750Z,3.80
2022-12-04T07:19:10.816Z,4.20
2022-12-04T07:20:10.771Z,4.00
2022-12-04T07:21:10.768Z,4.10
2022-12-04T07:22:10.766Z,3.60
2022-12-04T07:23:10.722Z,3.40
2022-12-04T07:24:10.687Z,3.70
2022-12-04T07:25:10.737Z,4.00
2022-12-04T07:26:10.665Z,3.90
2022-12-04T07:27:10.712Z,3.80
2022-12-04T07:28:10.665Z,3.90
2022-12-04T07:29:10.669Z,3.80
2022-12-04T07:30:15.564Z,3.80
2022-12-04T07:31:10.656Z,3.70
2022-12-04T07:32:10.673Z,3.50
2022-12-04T07:33:10.652Z,3.80
2022-12-04T07:34:10.631Z,3.80
2022-12-04T07:35:10.827Z,3.80
2022-12-04T07:36:10.588Z,3.60
2022-12-04T07:37:10.574Z,3.70
2022-12-04T07:38:10.604Z,3.70
2022-12-04T07:39:10.624Z,3.70
2022-12-04T07:40:10.622Z,3.40
2022-12-04T07:41:10.505Z,3.90
2022-12-04T07:42:10.574Z,4.00
2022-12-04T07:43:10.491Z,3.80
2022-12-04T07:44:10.673Z,3.30
2022-12-04T07:45:10.493Z,3.60
2022-12-04T07:46:10.557Z,3.50
2022-12-04T07:47:10.464Z,3.90
2022-12-04T07:48:10.504Z,3.70
2022-12-04T07:49:10.420Z,3.60
2022-12-04T07:50:10.430Z,3.90
2022-12-04T07:51:10.426Z,4.20
2022-12-04T07:52:10.466Z,3.70
2022-12-04T07:53:10.378Z,3.70
2022-12-04T07:54:10.536Z,3.70
2022-12-04T07:55:10.363Z,3.80
2022-12-04T07:56:10.479Z,4.00
2022-12-04T07:57:10.356Z,3.80
2022-12-04T07:58:10.346Z,3.80
2022-12-04T07:59:10.338Z,4.00
2022-12-04T08:00:10.357Z,3.50
2022-12-04T08:01:10.357Z,3.90
2022-12-04T08:02:10.578Z,3.80
2022-12-04T08:03:10.306Z,3.90
2022-12-04T08:04:10.315Z,3.60
2022-12-04T08:05:10.274Z,3.70
2022-12-04T08:06:10.287Z,3.50
2022-12-04T08:07:10.218Z,3.80
2022-12-04T08:08:10.297Z,3.60
2022-12-04T08:09:10.610Z,3.70
2022-12-04T08:10:10.224Z,4.30
2022-12-04T08:11:10.221Z,3.80
2022-12-04T08:12:10.224Z,3.80
2022-12-04T08:13:10.167Z,4.00
2022-12-04T08:14:10.218Z,3.80
2022-12-04T08:15:10.139Z,3.70
2022-12-04T08:16:10.161Z,3.50
2022-12-04T08:17:10.212Z,3.70
2022-12-04T08:18:10.133Z,3.60
2022-12-04T08:19:10.124Z,3.70
2022-12-04T08:20:10.183Z,3.80
2022-12-04T08:21:10.118Z,3.70
2022-12-04T08:22:10.087Z,3.80
2022-12-04T08:23:10.093Z,3.90
2022-12-04T08:24:10.093Z,3.40
2022-12-04T08:25:10.027Z,3.80
2022-12-04T08:26:10.079Z,3.60
2022-12-04T08:27:10.018Z,3.60
2022-12-04T08:28:10.030Z,3.40
2022-12-04T08:29:10.050Z,3.40
2022-12-04T08:30:10.079Z,3.80
2022-12-04T08:31:10.072Z,3.70
2022-12-04T08:32:10.027Z,3.40
2022-12-04T08:33:09.942Z,3.30
2022-12-04T08:34:10.002Z,3.30
2022-12-04T08:35:09.933Z,3.70
2022-12-04T08:36:09.954Z,3.90
2022-12-04T08:37:10.049Z,3.50
2022-12-04T08:38:09.956Z,3.50
2022-12-04T08:39:09.925Z,3.60
2022-12-04T08:40:09.935Z,4.20
2022-12-04T08:41:09.866Z,3.60
2022-12-04T08:42:09.909Z,3.70
2022-12-04T08:43:09.931Z,3.50
2022-12-04T08:44:09.880Z,3.50
2022-12-04T08:45:09.870Z,3.70
2022-12-04T08:46:09.992Z,3.50
2022-12-04T08:47:09.891Z,4.10
2022-12-04T08:48:09.845Z,3.90
2022-12-04T08:49:09.809Z,4.20
2022-12-04T08:50:09.981Z,3.60
2022-12-04T08:51:09.763Z,3.80
2022-12-04T08:52:09.799Z,3.40
2022-12-04T08:53:09.774Z,3.40
2022-12-04T08:54:09.789Z,3.30
2022-12-04T08:55:09.715Z,3.70
2022-12-04T08:56:09.727Z,3.70
2022-12-04T08:57:09.717Z,3.60
2022-12-04T08:58:09.710Z,3.50
2022-12-04T08:59:09.705Z,3.60
2022-12-04T09:00:09.731Z,3.40
2022-12-04T09:01:09.741Z,3.60
2022-12-04T09:02:09.779Z,3.40
2022-12-04T09:03:09.660Z,3.50
2022-12-04T09:04:09.750Z,3.20
2022-12-04T09:05:09.650Z,3.20
2022-12-04T09:06:09.663Z,3.20
2022-12-04T09:07:09.622Z,3.10
2022-12-04T09:08:09.756Z,3.30
2022-12-04T09:09:09.568Z,3.30
2022-12-04T09:10:09.587Z,3.10
2022-12-04T09:11:09.565Z,2.80
2022-12-04T09:12:09.604Z,2.90
2022-12-04T09:13:09.523Z,3.00
2022-12-04T09:14:09.561Z,2.90
2022-12-04T09:15:09.511Z,3.10
2022-12-04T09:16:09.582Z,3.10
2022-12-04T09:17:09.515Z,3.00
2022-12-04T09:18:09.500Z,2.90
2022-12-04T09:19:09.494Z,3.20
2022-12-04T09:20:09.556Z,3.10
2022-12-04T09:21:09.433Z,3.00
2022-12-04T09:22:10.267Z,2.70
2022-12-04T09:23:09.421Z,3.00
2022-12-04T09:24:09.474Z,3.20
2022-12-04T09:25:09.455Z,2.80
2022-12-04T09:26:09.443Z,2.80
2022-12-04T09:27:14.431Z,2.90
2022-12-04T09:28:09.407Z,2.60
2022-12-04T09:29:09.477Z,2.70
2022-12-04T09:30:09.767Z,2.90
2022-12-04T09:31:09.406Z,2.70
2022-12-04T09:32:09.380Z,2.90
2022-12-04T09:33:09.347Z,2.90
2022-12-04T09:34:09.445Z,2.80
2022-12-04T09:35:09.325Z,2.70
2022-12-04T09:36:09.326Z,2.60
2022-12-04T09:37:09.302Z,2.90
2022-12-04T09:38:09.285Z,2.50
2022-12-04T09:39:09.281Z,2.80
2022-12-04T09:40:09.300Z,2.70
2022-12-04T09:41:09.262Z,2.60
2022-12-04T09:42:09.281Z,2.70
2022-12-04T09:43:09.211Z,2.50
2022-12-04T09:44:09.231Z,2.80
2022-12-04T09:45:09.222Z,2.90
2022-12-04T09:46:09.683Z,3.00
2022-12-04T09:47:09.281Z,2.60
2022-12-04T09:48:09.208Z,2.40
2022-12-04T09:49:09.217Z,2.60
2022-12-04T09:50:09.190Z,2.60
2022-12-04T09:51:09.135Z,2.50
2022-12-04T09:52:09.174Z,2.90
2022-12-04T09:53:09.161Z,2.60
2022-12-04T09:54:09.114Z,2.60
2022-12-04T09:55:09.156Z,2.70
2022-12-04T09:56:09.111Z,2.70
2022-12-04T09:57:09.058Z,2.60
2022-12-04T09:58:09.116Z,2.50
2022-12-04T09:59:09.068Z,5.40
2022-12-04T10:00:09.086Z,6.40
2022-12-04T10:01:09.009Z,6.90
2022-12-04T10:02:09.136Z,5.90
2022-12-04T10:03:09.142Z,6.40
2022-12-04T10:04:09.139Z,5.50
2022-12-04T10:05:09.002Z,5.20
2022-12-04T10:06:09.025Z,5.60
2022-12-04T10:07:08.975Z,5.40
2022-12-04T10:08:09.058Z,5.50
2022-12-04T10:09:08.939Z,5.50
2022-12-04T10:10:08.986Z,5.60
2022-12-04T10:11:08.918Z,5.60
2022-12-04T10:12:09.004Z,6.30
2022-12-04T10:13:08.991Z,6.30
2022-12-04T10:14:09.217Z,6.00
2022-12-04T10:15:08.957Z,6.40
2022-12-04T10:16:08.934Z,6.40
2022-12-04T10:17:08.855Z,6.80
2022-12-04T10:18:08.861Z,7.20
2022-12-04T10:19:08.838Z,6.90
2022-12-04T10:20:08.860Z,10.90
2022-12-04T10:21:08.783Z,16.60
2022-12-04T10:22:08.865Z,12.00
2022-12-04T10:23:13.503Z,14.50
2022-12-04T10:24:08.785Z,17.40
2022-12-04T10:25:08.780Z,18.40
2022-12-04T10:26:08.756Z,16.70
2022-12-04T10:27:08.880Z,15.50
2022-12-04T10:28:08.763Z,15.30
2022-12-04T10:29:08.762Z,14.50
2022-12-04T10:30:08.767Z,14.90
2022-12-04T10:31:08.760Z,16.10
2022-12-04T10:32:08.718Z,15.30
2022-12-04T10:33:08.649Z,14.40
2022-12-04T10:34:08.702Z,14.70
2022-12-04T10:35:08.635Z,15.90
2022-12-04T10:36:08.658Z,15.70
2022-12-04T10:37:08.717Z,15.10
2022-12-04T10:38:08.632Z,14.60
2022-12-04T10:39:08.637Z,13.50
2022-12-04T10:40:08.682Z,13.80
2022-12-04T10:41:13.325Z,14.20
2022-12-04T10:42:08.620Z,14.10
2022-12-04T10:43:08.546Z,14.20
2022-12-04T10:44:08.563Z,13.70
2022-12-04T10:45:08.547Z,13.70
2022-12-04T10:46:08.610Z,13.20
2022-12-04T10:47:08.578Z,12.80
2022-12-04T10:48:08.549Z,12.30
2022-12-04T10:49:08.482Z,12.60
2022-12-04T10:50:08.527Z,13.10
2022-12-04T10:51:08.736Z,13.40
2022-12-04T10:52:08.478Z,12.60
2022-12-04T10:53:13.542Z,12.40
2022-12-04T10:54:08.487Z,12.90
2022-12-04T10:55:08.452Z,12.20
2022-12-04T10:56:08.455Z,11.70
2022-12-04T10:57:08.710Z,11.00
2022-12-04T10:58:08.462Z,10.80
2022-12-04T10:59:08.390Z,11.00
2022-12-04T11:00:08.462Z,10.90
2022-12-04T11:01:08.410Z,12.10
2022-12-04T11:02:08.610Z,13.00
2022-12-04T11:03:08.439Z,13.60
2022-12-04T11:04:08.341Z,15.10
2022-12-04T11:05:08.398Z,15.80
2022-12-04T11:06:08.400Z,17.20
2022-12-04T11:07:08.332Z,16.00
2022-12-04T11:08:08.477Z,16.50
2022-12-04T11:09:08.312Z,15.10
2022-12-04T11:10:08.391Z,16.10
2022-12-04T11:11:08.251Z,14.90
2022-12-04T11:12:08.268Z,14.10
2022-12-04T11:13:08.780Z,15.30
2022-12-04T11:14:08.232Z,15.10
2022-12-04T11:15:08.250Z,14.80
2022-12-04T11:16:08.249Z,13.60
2022-12-04T11:17:08.166Z,13.50
2022-12-04T11:18:08.195Z,13.10
2022-12-04T11:19:08.175Z,13.40
2022-12-04T11:20:08.193Z,13.20
2022-12-04T11:21:08.147Z,12.60
2022-12-04T11:22:08.171Z,12.80
2022-12-04T11:23:08.126Z,13.10
2022-12-04T11:24:08.140Z,12.70
2022-12-04T11:25:08.119Z,13.20
2022-12-04T11:26:08.115Z,12.20
2022-12-04T11:27:08.090Z,12.20
2022-12-04T11:28:08.109Z,12.10
2022-12-04T11:29:08.064Z,11.90
2022-12-04T11:30:08.088Z,11.90
2022-12-04T11:31:08.111Z,11.30
2022-12-04T11:32:08.468Z,11.20
2022-12-04T11:33:08.023Z,11.60
2022-12-04T11:34:08.215Z,12.00
2022-12-04T11:35:07.974Z,12.00
2022-12-04T11:36:08.006Z,12.40
2022-12-04T11:37:07.978Z,11.30
2022-12-04T11:38:07.978Z,11.70
2022-12-04T11:39:07.976Z,11.80
2022-12-04T11:40:07.977Z,11.20
2022-12-04T11:41:07.934Z,12.30
2022-12-04T11:42:07.957Z,11.80
2022-12-04T11:43:07.893Z,11.60
2022-12-04T11:44:07.904Z,12.10
2022-12-04T11:45:07.901Z,11.70
2022-12-04T11:46:07.891Z,11.50
2022-12-04T11:47:07.971Z,11.50
2022-12-04T11:48:07.948Z,11.60
2022-12-04T11:49:07.824Z,11.10
2022-12-04T11:50:08.080Z,11.00
2022-12-04T11:51:07.862Z,10.70
2022-12-04T11:52:07.933Z,10.60
2022-12-04T11:53:07.812Z,10.90
2022-12-04T11:54:07.830Z,10.90
2022-12-04T11:55:07.797Z,10.30
2022-12-04T11:56:07.764Z,10.40
2022-12-04T11:57:07.801Z,10.90
2022-12-04T11:58:07.818Z,10.80
2022-12-04T11:59:07.783Z,10.90
2022-12-04T12:00:07.740Z,10.90
2022-12-04T12:01:07.724Z,10.90
2022-12-04T12:02:07.851Z,10.50
2022-12-04T12:03:07.838Z,11.00
2022-12-04T12:04:07.681Z,9.50
2022-12-04T12:05:07.710Z,10.40
2022-12-04T12:06:07.740Z,9.80
2022-12-04T12:07:07.662Z,10.20
2022-12-04T12:08:07.622Z,10.10
2022-12-04T12:09:07.673Z,10.00
2022-12-04T12:10:07.614Z,10.50
2022-12-04T12:11:07.645Z,11.20
2022-12-04T12:12:07.615Z,9.90
2022-12-04T12:13:07.624Z,9.90
2022-12-04T12:14:07.604Z,10.40
2022-12-04T12:15:07.582Z,9.80
2022-12-04T12:16:07.586Z,10.40
2022-12-04T12:17:07.585Z,9.30
2022-12-04T12:18:07.745Z,9.60
2022-12-04T12:19:07.566Z,9.30
2022-12-04T12:20:07.523Z,9.60
2022-12-04T12:21:07.536Z,10.00
2022-12-04T12:22:07.493Z,9.50
2022-12-04T12:23:07.533Z,9.60
2022-12-04T12:24:07.507Z,9.60
2022-12-04T12:25:07.473Z,9.30
2022-12-04T12:26:07.460Z,9.10
2022-12-04T12:27:07.465Z,9.20
2022-12-04T12:28:07.431Z,8.80
2022-12-04T12:29:07.457Z,9.10
2022-12-04T12:30:07.397Z,8.80
2022-12-04T12:31:07.439Z,9.10
2022-12-04T12:32:07.472Z,8.60
2022-12-04T12:33:07.446Z,9.40
2022-12-04T12:34:07.388Z,9.10
2022-12-04T12:35:07.372Z,9.00
2022-12-04T12:36:07.371Z,9.00
2022-12-04T12:37:07.371Z,8.60
2022-12-04T12:38:07.335Z,8.50
2022-12-04T12:39:07.885Z,8.90
2022-12-04T12:40:07.316Z,8.80
2022-12-04T12:41:07.329Z,8.50
2022-12-04T12:42:07.269Z,9.00
2022-12-04T12:43:07.537Z,8.60
2022-12-04T12:44:07.366Z,9.00
2022-12-04T12:45:07.271Z,8.60
2022-12-04T12:46:07.312Z,7.90
2022-12-04T12:47:07.261Z,8.40
2022-12-04T12:48:07.220Z,8.10
2022-12-04T12:49:07.245Z,9.10
2022-12-04T12:50:07.179Z,8.40
2022-12-04T12:51:29.070Z,8.90
2022-12-04T12:52:07.198Z,8.50
2022-12-04T12:53:07.209Z,8.80
2022-12-04T12:54:07.177Z,8.10
2022-12-04T12:55:07.181Z,8.00
2022-12-04T12:56:09.710Z,8.80
2022-12-04T12:57:07.186Z,7.70
2022-12-04T12:58:07.232Z,7.80
2022-12-04T12:59:07.224Z,8.10
2022-12-04T13:00:07.167Z,8.60
2022-12-04T13:01:07.136Z,8.00
2022-12-04T13:02:07.176Z,7.90
2022-12-04T13:03:07.156Z,7.90
2022-12-04T13:04:07.036Z,8.20
2022-12-04T13:05:07.153Z,7.30
2022-12-04T13:06:07.195Z,8.20
2022-12-04T13:07:07.071Z,7.70
2022-12-04T13:08:07.086Z,7.80
2022-12-04T13:09:07.088Z,8.20
2022-12-04T13:10:07.026Z,8.40